createdAt,value
2019-01-29T00:02:10.545Z,7.20
2019-01-29T00:07:14.649Z,6.90
2019-01-29T00:12:18.851Z,6.90
2019-01-29T00:17:22.692Z,6.90
2019-01-29T00:22:33.261Z,7.10
2019-01-29T00:27:32.357Z,7.00
2019-01-29T00:32:37.004Z,7.00
2019-01-29T00:37:40.894Z,6.70
2019-01-29T00:42:44.985Z,6.80
2019-01-29T00:47:49.350Z,6.60
2019-01-29T00:52:53.635Z,6.80
2019-01-29T00:57:57.602Z,6.90
2019-01-29T01:03:01.440Z,7.10
2019-01-29T01:08:05.657Z,6.80
2019-01-29T01:13:10.160Z,6.90
2019-01-29T01:18:14.126Z,7.10
2019-01-29T01:23:19.021Z,7.00
2019-01-29T01:28:23.383Z,6.60
2019-01-29T01:33:27.995Z,6.60
2019-01-29T01:38:31.911Z,6.60
2019-01-29T01:43:36.014Z,7.00
2019-01-29T01:48:40.083Z,6.60
2019-01-29T01:53:44.741Z,7.10
2019-01-29T01:58:48.807Z,6.80
2019-01-29T02:03:53.211Z,6.60
2019-01-29T02:08:57.326Z,6.90
2019-01-29T02:14:01.237Z,6.50
2019-01-29T02:19:05.467Z,6.60
2019-01-29T02:24:09.382Z,7.10
2019-01-29T02:29:13.327Z,6.60
2019-01-29T02:34:17.264Z,6.80
2019-01-29T02:39:21.104Z,6.80
2019-01-29T02:44:25.078Z,6.70
2019-01-29T02:49:29.162Z,6.60
2019-01-29T02:54:33.374Z,6.80
2019-01-29T02:59:37.703Z,6.80
2019-01-29T03:04:41.687Z,6.70
2019-01-29T03:09:45.567Z,6.80
2019-01-29T03:14:49.794Z,6.80
2019-01-29T03:19:54.043Z,6.80
2019-01-29T03:24:58.291Z,6.70
2019-01-29T03:30:02.148Z,6.60
2019-01-29T03:35:06.999Z,6.60
2019-01-29T03:40:14.213Z,6.80
2019-01-29T03:45:18.592Z,6.60
2019-01-29T03:50:22.973Z,6.80
2019-01-29T03:55:27.144Z,6.90
2019-01-29T04:00:31.238Z,6.80
2019-01-29T04:05:35.674Z,6.60
2019-01-29T04:10:39.506Z,6.80
2019-01-29T04:15:43.662Z,6.60
2019-01-29T04:20:47.611Z,6.70
2019-01-29T04:25:52.046Z,6.70
2019-01-29T04:30:56.406Z,6.50
2019-01-29T04:36:00.503Z,6.50
2019-01-29T04:41:04.631Z,6.80
2019-01-29T04:46:09.012Z,6.80
2019-01-29T04:51:12.986Z,6.60
2019-01-29T04:56:17.063Z,6.50
2019-01-29T05:01:21.026Z,6.80
2019-01-29T05:06:25.373Z,6.60
2019-01-29T05:11:29.379Z,6.60
2019-01-29T05:16:33.423Z,6.50
2019-01-29T05:21:37.422Z,6.70
2019-01-29T05:26:41.608Z,6.70
2019-01-29T05:31:45.495Z,6.50
2019-01-29T05:36:49.527Z,6.60
2019-01-29T05:41:54.097Z,6.80
2019-01-29T05:46:58.175Z,6.80
2019-01-29T05:52:02.309Z,6.50
2019-01-29T05:57:06.308Z,6.60
2019-01-29T06:02:10.382Z,6.70
2019-01-29T06:07:14.859Z,6.80
2019-01-29T06:12:18.699Z,6.80
2019-01-29T06:17:27.526Z,6.50
2019-01-29T06:22:28.385Z,6.90
2019-01-29T06:27:32.801Z,6.60
2019-01-29T06:32:36.963Z,6.70
2019-01-29T06:37:40.940Z,6.80
2019-01-29T06:42:44.966Z,6.70
2019-01-29T06:47:48.954Z,6.70
2019-01-29T06:52:52.946Z,6.80
2019-01-29T06:57:56.974Z,6.50
2019-01-29T07:03:02.252Z,6.50
2019-01-29T07:08:06.534Z,6.50
2019-01-29T07:13:10.375Z,6.30
2019-01-29T07:18:26.866Z,6.50
2019-01-29T07:23:31.050Z,6.30
2019-01-29T07:28:34.982Z,6.30
2019-01-29T07:33:39.226Z,6.30
2019-01-29T07:38:43.515Z,6.60
2019-01-29T07:43:47.442Z,6.30
2019-01-29T07:48:51.366Z,6.50
2019-01-29T07:53:55.543Z,6.70
2019-01-29T07:58:59.702Z,6.60
2019-01-29T08:04:03.634Z,6.30
2019-01-29T08:09:10.072Z,6.40
2019-01-29T08:14:14.184Z,6.30
2019-01-29T08:19:18.207Z,6.40
2019-01-29T08:24:22.147Z,6.60
2019-01-29T08:29:26.023Z,6.30
2019-01-29T08:34:29.950Z,6.20
2019-01-29T08:39:33.786Z,6.40
2019-01-29T08:44:37.717Z,6.30
2019-01-29T08:49:41.637Z,6.30
2019-01-29T08:54:45.491Z,6.30
2019-01-29T08:59:49.411Z,6.50
2019-01-29T09:04:53.739Z,6.60
2019-01-29T09:09:57.679Z,6.80
2019-01-29T09:15:01.706Z,6.50
2019-01-29T09:20:06.717Z,6.50
2019-01-29T09:25:19.807Z,6.60
2019-01-29T09:30:18.053Z,6.60
2019-01-29T09:35:22.216Z,6.30
2019-01-29T09:40:26.170Z,6.40
2019-01-29T09:45:30.426Z,6.50
2019-01-29T09:50:34.446Z,6.50
2019-01-29T09:55:38.439Z,6.50
2019-01-29T10:00:42.415Z,6.90
2019-01-29T10:05:46.326Z,6.60
2019-01-29T10:10:50.499Z,6.80
2019-01-29T10:15:54.410Z,6.50
2019-01-29T10:20:58.447Z,6.50
2019-01-29T10:26:02.423Z,6.70
2019-01-29T10:31:06.274Z,6.70
2019-01-29T10:36:10.250Z,6.80
2019-01-29T10:41:14.235Z,6.60
2019-01-29T10:46:18.239Z,6.60
2019-01-29T10:51:22.744Z,6.90
2019-01-29T10:56:26.899Z,6.90
2019-01-29T11:01:30.907Z,6.60
2019-01-29T11:06:34.934Z,6.80
2019-01-29T11:11:38.894Z,7.10
2019-01-29T11:16:43.671Z,7.10
2019-01-29T11:21:48.016Z,6.60
2019-01-29T11:26:51.968Z,6.60
2019-01-29T11:31:55.819Z,6.80
2019-01-29T11:37:00.031Z,6.90
2019-01-29T11:42:04.527Z,6.90
2019-01-29T11:47:08.696Z,6.80
2019-01-29T11:52:13.155Z,7.10
2019-01-29T11:57:16.986Z,7.10
2019-01-29T12:02:28.324Z,7.20
2019-01-29T12:07:27.852Z,7.00
2019-01-29T12:12:32.131Z,7.10
2019-01-29T12:17:36.378Z,7.10
2019-01-29T12:22:40.659Z,7.20
2019-01-29T12:27:44.646Z,7.20
2019-01-29T12:32:48.876Z,7.80
2019-01-29T12:37:52.978Z,7.30
2019-01-29T12:42:57.315Z,7.50
2019-01-29T12:48:01.322Z,7.40
2019-01-29T12:53:17.790Z,7.40
2019-01-29T12:58:21.789Z,7.50
2019-01-29T13:03:25.982Z,7.20
2019-01-29T13:08:29.939Z,7.50
2019-01-29T13:13:34.263Z,7.20
2019-01-29T13:18:38.368Z,7.50
2019-01-29T13:23:42.306Z,7.30
2019-01-29T13:28:46.663Z,7.20
2019-01-29T13:33:50.506Z,7.40
2019-01-29T13:38:54.685Z,7.50
2019-01-29T13:43:58.730Z,7.20
2019-01-29T13:49:02.947Z,7.40
2019-01-29T13:54:06.885Z,7.30
2019-01-29T13:59:10.894Z,7.40
2019-01-29T14:04:14.898Z,7.50
2019-01-29T14:09:19.012Z,7.40
2019-01-29T14:14:22.932Z,7.30
2019-01-29T14:19:27.515Z,7.40
2019-01-29T14:24:31.487Z,7.40
2019-01-29T14:29:35.738Z,7.50
2019-01-29T14:34:40.054Z,7.10
2019-01-29T14:40:06.146Z,7.20
2019-01-29T14:45:15.243Z,7.40
2019-01-29T14:50:19.986Z,7.50
2019-01-29T14:55:24.244Z,7.50
2019-01-29T15:00:28.840Z,7.30
2019-01-29T15:05:35.910Z,7.30
2019-01-29T15:10:39.966Z,7.10
2019-01-29T15:15:49.597Z,7.50
2019-01-29T15:20:53.659Z,7.40
2019-01-29T15:25:57.854Z,7.40
2019-01-29T15:31:02.231Z,6.90
2019-01-29T15:36:06.720Z,7.00
2019-01-29T15:41:10.733Z,7.10
2019-01-29T15:46:17.918Z,7.30
2019-01-29T15:51:24.922Z,7.30
2019-01-29T15:56:29.337Z,7.10
2019-01-29T16:01:33.772Z,7.30
2019-01-29T16:06:37.856Z,7.10
2019-01-29T16:11:42.379Z,7.20
2019-01-29T16:16:46.912Z,6.90
2019-01-29T16:21:51.427Z,7.10
2019-01-29T16:26:55.789Z,7.00
2019-01-29T16:32:01.802Z,7.10
2019-01-29T16:37:07.135Z,9.70
2019-01-29T16:42:11.514Z,8.70
2019-01-29T16:47:15.742Z,8.20
2019-01-29T16:52:19.967Z,8.00
2019-01-29T16:57:31.597Z,7.70
2019-01-29T17:02:29.867Z,7.60
2019-01-29T17:07:34.023Z,7.40
2019-01-29T17:12:37.946Z,7.50
2019-01-29T17:17:41.943Z,7.40
2019-01-29T17:22:46.228Z,7.20
2019-01-29T17:27:52.740Z,7.20
2019-01-29T17:32:57.552Z,7.20
2019-01-29T17:38:01.752Z,7.10
2019-01-29T17:43:06.227Z,6.90
2019-01-29T17:48:10.467Z,7.10
2019-01-29T17:53:17.499Z,7.10
2019-01-29T17:58:21.891Z,7.10
2019-01-29T18:03:26.154Z,6.60
2019-01-29T18:08:30.003Z,6.90
2019-01-29T18:13:33.910Z,6.80
2019-01-29T18:18:37.849Z,6.60
2019-01-29T18:23:45.887Z,6.60
2019-01-29T18:28:50.213Z,6.50
2019-01-29T18:33:56.414Z,6.80
2019-01-29T18:39:00.812Z,6.50
2019-01-29T18:44:04.970Z,6.70
2019-01-29T18:49:09.076Z,6.70
2019-01-29T18:54:13.320Z,6.50
2019-01-29T18:59:17.626Z,6.30
2019-01-29T19:04:22.031Z,6.30
2019-01-29T19:09:26.238Z,6.40
2019-01-29T19:14:30.198Z,6.30
2019-01-29T19:19:34.170Z,6.30
2019-01-29T19:24:38.606Z,6.50
2019-01-29T19:29:42.687Z,6.10
2019-01-29T19:34:47.554Z,6.30
2019-01-29T19:39:51.774Z,6.30
2019-01-29T19:44:56.157Z,6.50
2019-01-29T19:50:00.296Z,6.10
2019-01-29T19:55:04.678Z,6.00
2019-01-29T20:00:18.603Z,6.00
2019-01-29T20:05:22.798Z,6.10
2019-01-29T20:10:27.283Z,6.10
2019-01-29T20:15:31.571Z,6.00
2019-01-29T20:20:38.162Z,6.10
2019-01-29T20:25:42.454Z,6.00
2019-01-29T20:30:46.703Z,6.00
2019-01-29T20:35:50.863Z,6.00
2019-01-29T20:40:55.032Z,6.20
2019-01-29T20:45:58.951Z,6.10
2019-01-29T20:51:02.888Z,6.10
2019-01-29T20:56:06.943Z,6.20
2019-01-29T21:01:10.943Z,6.00
2019-01-29T21:06:15.103Z,6.10
2019-01-29T21:11:19.196Z,5.80
2019-01-29T21:16:23.430Z,6.20
2019-01-29T21:21:27.343Z,5.80
2019-01-29T21:26:31.474Z,5.70
2019-01-29T21:31:35.934Z,5.80
2019-01-29T21:36:39.858Z,5.80
2019-01-29T21:41:43.686Z,5.80
2019-01-29T21:46:47.867Z,5.80
2019-01-29T21:51:51.743Z,5.80
2019-01-29T21:56:55.567Z,6.00
2019-01-29T22:01:59.463Z,6.00
2019-01-29T22:07:03.406Z,5.90
2019-01-29T22:12:07.383Z,5.50
2019-01-29T22:17:11.299Z,5.70
2019-01-29T22:22:15.142Z,5.50
2019-01-29T22:27:19.118Z,5.80
2019-01-29T22:32:22.979Z,5.90
2019-01-29T22:37:27.123Z,5.70
2019-01-29T22:42:31.030Z,5.50
2019-01-29T22:47:34.862Z,5.50
2019-01-29T22:52:38.790Z,5.70
2019-01-29T22:57:43.274Z,5.40
2019-01-29T23:02:47.554Z,5.60
2019-01-29T23:07:51.403Z,5.60
2019-01-29T23:12:55.831Z,5.50
2019-01-29T23:17:59.999Z,5.50
2019-01-29T23:23:04.255Z,5.50
2019-01-29T23:28:08.187Z,5.80
2019-01-29T23:33:12.100Z,5.50
2019-01-29T23:38:16.310Z,5.50
2019-01-29T23:43:20.555Z,5.50
2019-01-29T23:48:25.053Z,5.50
2019-01-29T23:53:29.731Z,5.50
2019-01-29T23:58:33.908Z,5.60
